DAL1007 KDCA-KATL
Flight info
| Callsign | DAL1007 |
|---|---|
| Flight time | N/A |
| Altitude | 36000 |
| Route | CLTCH3 FLASK OZZZI2 |
| Aircraft | B738/M-SDE2E3FGHIRWXY/LB1 |
Departure
| Time | 2026-05-05 20:51 |
|---|---|
| Airport | Ronald Reagan Washington National Airport (KDCA) |
Arrival
| Time | N/A |
|---|---|
| Airport | Hartsfield Jackson Atlanta International Airport (KATL) |
| Time | Latitude | Longitude | Altitude | Speed | Heading |
|---|---|---|---|---|---|
| 2026-05-05 20:22 | 38.85248 | -77.04157 | 27 ft | 0 kts | 171° |
| 2026-05-05 20:42 | 38.85260 | -77.04159 | 26 ft | 4 kts | 164° |
| 2026-05-05 20:43 | 38.85283 | -77.04173 | 29 ft | 4 kts | 130° |
| 2026-05-05 20:43 | 38.85292 | -77.04201 | 27 ft | 3 kts | 74° |
| 2026-05-05 20:43 | 38.85290 | -77.04206 | 27 ft | 0 kts | 70° |
| 2026-05-05 20:46 | 38.85293 | -77.04196 | 27 ft | 4 kts | 70° |
| 2026-05-05 20:46 | 38.85310 | -77.04138 | 24 ft | 8 kts | 70° |
| 2026-05-05 20:46 | 38.85327 | -77.04067 | 26 ft | 8 kts | 74° |
| 2026-05-05 20:46 | 38.85340 | -77.03994 | 22 ft | 9 kts | 83° |
| 2026-05-05 20:47 | 38.85374 | -77.03941 | 22 ft | 9 kts | 5° |
| 2026-05-05 20:47 | 38.85434 | -77.03944 | 26 ft | 8 kts | 355° |
| 2026-05-05 20:47 | 38.85491 | -77.03951 | 27 ft | 8 kts | 355° |
| 2026-05-05 20:47 | 38.85555 | -77.03959 | 29 ft | 10 kts | 354° |
| 2026-05-05 20:48 | 38.85600 | -77.03963 | 28 ft | 0 kts | 355° |
| 2026-05-05 20:48 | 38.85605 | -77.03963 | 28 ft | 3 kts | 355° |
| 2026-05-05 20:48 | 38.85663 | -77.03969 | 26 ft | 13 kts | 355° |
| 2026-05-05 20:49 | 38.85755 | -77.03978 | 27 ft | 13 kts | 355° |
| 2026-05-05 20:49 | 38.85846 | -77.03987 | 26 ft | 13 kts | 355° |
| 2026-05-05 20:49 | 38.85920 | -77.03994 | 28 ft | 8 kts | 359° |
| 2026-05-05 20:49 | 38.85954 | -77.03986 | 27 ft | 2 kts | 30° |
| 2026-05-05 20:50 | 38.85988 | -77.03975 | 27 ft | 9 kts | 12° |
| 2026-05-05 20:50 | 38.86054 | -77.03951 | 24 ft | 11 kts | 27° |
| 2026-05-05 20:50 | 38.86070 | -77.03873 | 23 ft | 10 kts | 137° |
| 2026-05-05 20:50 | 38.86023 | -77.03863 | 24 ft | 6 kts | 174° |
| 2026-05-05 20:51 | 38.85809 | -77.03841 | 29 ft | 66 kts | 175° |
| 2026-05-05 20:51 | 38.85117 | -77.03771 | 26 ft | 130 kts | 173° |
| 2026-05-05 20:51 | 38.84118 | -77.03653 | 431 ft | 148 kts | 175° |
| 2026-05-05 20:51 | 38.83075 | -77.03580 | 1203 ft | 156 kts | 185° |
| 2026-05-05 20:52 | 38.82034 | -77.03581 | 2162 ft | 151 kts | 184° |
| 2026-05-05 20:52 | 38.81026 | -77.03582 | 2535 ft | 181 kts | 184° |
| 2026-05-05 20:52 | 38.80388 | -77.03579 | 2670 ft | 194 kts | 183° |
| 2026-05-05 20:52 | 38.78949 | -77.03560 | 2930 ft | 216 kts | 183° |
| 2026-05-05 20:53 | 38.77463 | -77.03580 | 3531 ft | 217 kts | 192° |
| 2026-05-05 20:53 | 38.76110 | -77.04342 | 4141 ft | 216 kts | 217° |
| 2026-05-05 20:53 | 38.75134 | -77.05829 | 4693 ft | 222 kts | 239° |
| 2026-05-05 20:53 | 38.74712 | -77.07731 | 5370 ft | 226 kts | 258° |
| 2026-05-05 20:54 | 38.74592 | -77.09750 | 5975 ft | 229 kts | 260° |
| 2026-05-05 20:54 | 38.74485 | -77.11797 | 6536 ft | 232 kts | 261° |
| 2026-05-05 20:54 | 38.74159 | -77.13786 | 7149 ft | 225 kts | 243° |
| 2026-05-05 20:54 | 38.73478 | -77.15592 | 7737 ft | 227 kts | 242° |
| 2026-05-05 20:55 | 38.72778 | -77.17449 | 8147 ft | 239 kts | 243° |
| 2026-05-05 20:55 | 38.72040 | -77.19427 | 8605 ft | 251 kts | 243° |
| 2026-05-05 20:55 | 38.71285 | -77.21455 | 9502 ft | 251 kts | 244° |
| 2026-05-05 20:55 | 38.70562 | -77.23486 | 10356 ft | 254 kts | 247° |
| 2026-05-05 20:56 | 38.69857 | -77.25669 | 10623 ft | 278 kts | 248° |
| 2026-05-05 20:56 | 38.69104 | -77.28063 | 10814 ft | 302 kts | 248° |
| 2026-05-05 20:56 | 38.68292 | -77.30651 | 11041 ft | 323 kts | 248° |
| 2026-05-05 20:56 | 38.67439 | -77.33359 | 11554 ft | 333 kts | 248° |
| 2026-05-05 20:57 | 38.66561 | -77.36130 | 12251 ft | 337 kts | 248° |
| 2026-05-05 20:57 | 38.65677 | -77.38914 | 13032 ft | 339 kts | 248° |
| 2026-05-05 20:57 | 38.64779 | -77.41736 | 13734 ft | 345 kts | 248° |
| 2026-05-05 20:57 | 38.63867 | -77.44592 | 14377 ft | 350 kts | 248° |
| 2026-05-05 20:58 | 38.62939 | -77.47495 | 15037 ft | 355 kts | 248° |
| 2026-05-05 20:58 | 38.62000 | -77.50429 | 15740 ft | 358 kts | 248° |
| 2026-05-05 20:58 | 38.61048 | -77.53402 | 16406 ft | 363 kts | 248° |
| 2026-05-05 20:58 | 38.60087 | -77.56397 | 17086 ft | 367 kts | 248° |
| 2026-05-05 20:59 | 38.59110 | -77.59440 | 17725 ft | 372 kts | 247° |
| 2026-05-05 20:59 | 38.58120 | -77.62520 | 18342 ft | 377 kts | 247° |
| 2026-05-05 20:59 | 38.57132 | -77.65590 | 18914 ft | 380 kts | 247° |
| 2026-05-05 20:59 | 38.56123 | -77.68724 | 19516 ft | 383 kts | 247° |
| 2026-05-05 21:00 | 38.55106 | -77.71878 | 20119 ft | 385 kts | 247° |
| 2026-05-05 21:00 | 38.54083 | -77.75048 | 20706 ft | 388 kts | 247° |
| 2026-05-05 21:00 | 38.53023 | -77.78286 | 21241 ft | 391 kts | 245° |
| 2026-05-05 21:00 | 38.51585 | -77.81183 | 21744 ft | 395 kts | 229° |
| 2026-05-05 21:01 | 38.49687 | -77.83744 | 22316 ft | 398 kts | 227° |
| 2026-05-05 21:01 | 38.47785 | -77.86328 | 22814 ft | 401 kts | 228° |
| 2026-05-05 21:01 | 38.45892 | -77.88961 | 23307 ft | 404 kts | 228° |
| 2026-05-05 21:01 | 38.44027 | -77.91670 | 23758 ft | 407 kts | 232° |
| 2026-05-05 21:02 | 38.42331 | -77.94565 | 24177 ft | 409 kts | 235° |
| 2026-05-05 21:02 | 38.40707 | -77.97561 | 24620 ft | 411 kts | 236° |
| 2026-05-05 21:02 | 38.39094 | -78.00589 | 25050 ft | 413 kts | 237° |
| 2026-05-05 21:02 | 38.37470 | -78.03618 | 25444 ft | 416 kts | 236° |
| 2026-05-05 21:03 | 38.35816 | -78.06661 | 25834 ft | 418 kts | 236° |
| 2026-05-05 21:03 | 38.34141 | -78.09710 | 26215 ft | 421 kts | 236° |
| 2026-05-05 21:03 | 38.32449 | -78.12764 | 26588 ft | 423 kts | 236° |
| 2026-05-05 21:03 | 38.30740 | -78.15835 | 26946 ft | 426 kts | 236° |
| 2026-05-05 21:04 | 38.29022 | -78.18917 | 27285 ft | 428 kts | 237° |
| 2026-05-05 21:04 | 38.27290 | -78.22019 | 27579 ft | 432 kts | 237° |
| 2026-05-05 21:04 | 38.25545 | -78.25143 | 27905 ft | 434 kts | 237° |
| 2026-05-05 21:04 | 38.23787 | -78.28288 | 28257 ft | 436 kts | 237° |
| 2026-05-05 21:05 | 38.22047 | -78.31399 | 28585 ft | 438 kts | 238° |
| 2026-05-05 21:05 | 38.21124 | -78.33048 | 28754 ft | 439 kts | 238° |